sensor_id;sensor_type;location;lat;lon;timestamp;P1;durP1;ratioP1;P2;durP2;ratioP2
12976;SDS011;6553;48.412;9.514;2023-07-28T00:02:09;1.85;;;1.70;;
12976;SDS011;6553;48.412;9.514;2023-07-28T00:04:36;2.22;;;1.83;;
12976;SDS011;6553;48.412;9.514;2023-07-28T00:07:03;1.77;;;1.67;;
12976;SDS011;6553;48.412;9.514;2023-07-28T00:09:29;1.77;;;1.67;;
12976;SDS011;6553;48.412;9.514;2023-07-28T00:11:56;2.08;;;1.88;;
12976;SDS011;6553;48.412;9.514;2023-07-28T00:14:23;2.10;;;1.90;;
12976;SDS011;6553;48.412;9.514;2023-07-28T00:16:50;2.05;;;1.90;;
12976;SDS011;6553;48.412;9.514;2023-07-28T00:19:17;2.03;;;1.90;;
12976;SDS011;6553;48.412;9.514;2023-07-28T00:21:44;2.17;;;1.98;;
12976;SDS011;6553;48.412;9.514;2023-07-28T00:24:09;1.90;;;1.80;;
12976;SDS011;6553;48.412;9.514;2023-07-28T00:26:35;2.17;;;1.95;;
12976;SDS011;6553;48.412;9.514;2023-07-28T00:29:01;1.60;;;1.50;;
12976;SDS011;6553;48.412;9.514;2023-07-28T00:31:30;1.85;;;1.67;;
12976;SDS011;6553;48.412;9.514;2023-07-28T00:33:55;1.83;;;1.70;;
12976;SDS011;6553;48.412;9.514;2023-07-28T00:36:22;2.75;;;2.10;;
12976;SDS011;6553;48.412;9.514;2023-07-28T00:38:48;2.17;;;1.98;;
12976;SDS011;6553;48.412;9.514;2023-07-28T00:41:15;2.13;;;2.00;;
12976;SDS011;6553;48.412;9.514;2023-07-28T00:43:40;1.70;;;1.60;;
12976;SDS011;6553;48.412;9.514;2023-07-28T00:46:06;1.65;;;1.55;;
12976;SDS011;6553;48.412;9.514;2023-07-28T00:48:33;1.98;;;1.85;;
12976;SDS011;6553;48.412;9.514;2023-07-28T00:50:59;1.88;;;1.70;;
12976;SDS011;6553;48.412;9.514;2023-07-28T00:53:26;1.88;;;1.77;;
12976;SDS011;6553;48.412;9.514;2023-07-28T00:55:52;1.80;;;1.70;;
12976;SDS011;6553;48.412;9.514;2023-07-28T00:58:18;1.75;;;1.65;;
12976;SDS011;6553;48.412;9.514;2023-07-28T01:00:44;2.20;;;2.00;;
12976;SDS011;6553;48.412;9.514;2023-07-28T01:03:10;1.90;;;1.70;;
12976;SDS011;6553;48.412;9.514;2023-07-28T01:05:39;2.33;;;1.70;;
12976;SDS011;6553;48.412;9.514;2023-07-28T01:11:11;2.03;;;1.90;;
12976;SDS011;6553;48.412;9.514;2023-07-28T01:13:37;1.80;;;1.70;;
12976;SDS011;6553;48.412;9.514;2023-07-28T01:16:03;2.00;;;1.80;;
12976;SDS011;6553;48.412;9.514;2023-07-28T01:18:29;2.00;;;1.90;;
12976;SDS011;6553;48.412;9.514;2023-07-28T01:20:55;2.00;;;1.73;;
12976;SDS011;6553;48.412;9.514;2023-07-28T01:26:10;2.22;;;1.70;;
12976;SDS011;6553;48.412;9.514;2023-07-28T01:28:39;2.10;;;1.90;;
12976;SDS011;6553;48.412;9.514;2023-07-28T01:31:07;1.63;;;1.52;;
12976;SDS011;6553;48.412;9.514;2023-07-28T01:33:33;1.90;;;1.75;;
12976;SDS011;6553;48.412;9.514;2023-07-28T01:35:59;1.83;;;1.70;;
12976;SDS011;6553;48.412;9.514;2023-07-28T01:38:26;2.08;;;1.98;;
12976;SDS011;6553;48.412;9.514;2023-07-28T01:40:53;2.00;;;1.90;;
12976;SDS011;6553;48.412;9.514;2023-07-28T01:43:19;1.88;;;1.77;;
12976;SDS011;6553;48.412;9.514;2023-07-28T01:45:45;2.70;;;1.88;;
12976;SDS011;6553;48.412;9.514;2023-07-28T01:48:10;1.98;;;1.85;;
12976;SDS011;6553;48.412;9.514;2023-07-28T01:50:37;1.77;;;1.67;;
12976;SDS011;6553;48.412;9.514;2023-07-28T01:53:04;1.92;;;1.83;;
12976;SDS011;6553;48.412;9.514;2023-07-28T01:55:31;2.85;;;2.08;;
12976;SDS011;6553;48.412;9.514;2023-07-28T01:57:57;1.85;;;1.75;;
12976;SDS011;6553;48.412;9.514;2023-07-28T02:00:26;2.20;;;2.00;;
12976;SDS011;6553;48.412;9.514;2023-07-28T02:02:52;1.88;;;1.70;;
12976;SDS011;6553;48.412;9.514;2023-07-28T02:05:19;2.20;;;2.00;;
12976;SDS011;6553;48.412;9.514;2023-07-28T02:07:45;1.80;;;1.70;;
12976;SDS011;6553;48.412;9.514;2023-07-28T02:10:11;1.90;;;1.80;;
12976;SDS011;6553;48.412;9.514;2023-07-28T02:12:38;2.03;;;1.92;;
12976;SDS011;6553;48.412;9.514;2023-07-28T02:15:05;2.75;;;1.90;;
12976;SDS011;6553;48.412;9.514;2023-07-28T02:17:32;1.85;;;1.70;;
12976;SDS011;6553;48.412;9.514;2023-07-28T02:19:58;1.88;;;1.77;;
12976;SDS011;6553;48.412;9.514;2023-07-28T02:22:24;2.22;;;2.03;;
12976;SDS011;6553;48.412;9.514;2023-07-28T02:24:49;1.90;;;1.80;;
12976;SDS011;6553;48.412;9.514;2023-07-28T02:27:15;2.03;;;1.75;;
12976;SDS011;6553;48.412;9.514;2023-07-28T02:29:41;1.70;;;1.60;;
12976;SDS011;6553;48.412;9.514;2023-07-28T02:32:07;1.70;;;1.60;;
12976;SDS011;6553;48.412;9.514;2023-07-28T02:34:34;1.75;;;1.65;;
12976;SDS011;6553;48.412;9.514;2023-07-28T02:37:00;1.60;;;1.50;;
12976;SDS011;6553;48.412;9.514;2023-07-28T02:39:25;2.08;;;1.80;;
12976;SDS011;6553;48.412;9.514;2023-07-28T02:41:51;2.00;;;1.80;;
12976;SDS011;6553;48.412;9.514;2023-07-28T02:44:17;1.83;;;1.65;;
12976;SDS011;6553;48.412;9.514;2023-07-28T02:46:42;2.40;;;1.67;;
12976;SDS011;6553;48.412;9.514;2023-07-28T02:49:08;2.10;;;2.00;;
12976;SDS011;6553;48.412;9.514;2023-07-28T02:51:34;2.03;;;1.75;;
12976;SDS011;6553;48.412;9.514;2023-07-28T02:54:00;1.65;;;1.55;;
12976;SDS011;6553;48.412;9.514;2023-07-28T02:56:26;1.73;;;1.45;;
12976;SDS011;6553;48.412;9.514;2023-07-28T02:58:52;1.67;;;1.58;;
12976;SDS011;6553;48.412;9.514;2023-07-28T03:01:17;1.77;;;1.67;;
12976;SDS011;6553;48.412;9.514;2023-07-28T03:03:44;1.70;;;1.60;;
12976;SDS011;6553;48.412;9.514;2023-07-28T03:06:12;3.22;;;1.80;;
12976;SDS011;6553;48.412;9.514;2023-07-28T03:08:39;2.83;;;1.95;;
12976;SDS011;6553;48.412;9.514;2023-07-28T03:11:23;2.00;;;1.80;;
12976;SDS011;6553;48.412;9.514;2023-07-28T03:13:49;2.15;;;1.50;;
12976;SDS011;6553;48.412;9.514;2023-07-28T03:16:15;1.88;;;1.70;;
12976;SDS011;6553;48.412;9.514;2023-07-28T03:18:41;1.60;;;1.50;;
12976;SDS011;6553;48.412;9.514;2023-07-28T03:21:10;1.75;;;1.65;;
12976;SDS011;6553;48.412;9.514;2023-07-28T03:23:36;1.52;;;1.40;;
12976;SDS011;6553;48.412;9.514;2023-07-28T03:26:02;1.60;;;1.50;;
12976;SDS011;6553;48.412;9.514;2023-07-28T03:28:28;1.80;;;1.70;;
12976;SDS011;6553;48.412;9.514;2023-07-28T03:30:53;1.50;;;1.40;;
12976;SDS011;6553;48.412;9.514;2023-07-28T03:33:19;2.15;;;1.95;;
12976;SDS011;6553;48.412;9.514;2023-07-28T03:35:45;1.65;;;1.55;;
12976;SDS011;6553;48.412;9.514;2023-07-28T03:38:11;1.95;;;1.77;;
12976;SDS011;6553;48.412;9.514;2023-07-28T03:40:39;1.70;;;1.60;;
12976;SDS011;6553;48.412;9.514;2023-07-28T03:43:05;1.80;;;1.70;;
12976;SDS011;6553;48.412;9.514;2023-07-28T03:45:31;1.73;;;1.63;;
12976;SDS011;6553;48.412;9.514;2023-07-28T03:47:56;2.15;;;1.98;;
12976;SDS011;6553;48.412;9.514;2023-07-28T03:50:22;1.80;;;1.70;;
12976;SDS011;6553;48.412;9.514;2023-07-28T03:52:49;1.73;;;1.63;;
12976;SDS011;6553;48.412;9.514;2023-07-28T03:55:15;1.67;;;1.55;;
12976;SDS011;6553;48.412;9.514;2023-07-28T03:57:40;2.17;;;1.65;;
12976;SDS011;6553;48.412;9.514;2023-07-28T04:00:06;1.70;;;1.60;;
12976;SDS011;6553;48.412;9.514;2023-07-28T04:02:39;1.55;;;1.45;;
12976;SDS011;6553;48.412;9.514;2023-07-28T04:05:05;1.77;;;1.67;;
12976;SDS011;6553;48.412;9.514;2023-07-28T04:07:31;1.50;;;1.40;;
12976;SDS011;6553;48.412;9.514;2023-07-28T04:09:57;1.77;;;1.67;;
12976;SDS011;6553;48.412;9.514;2023-07-28T04:12:23;2.08;;;1.88;;
12976;SDS011;6553;48.412;9.514;2023-07-28T04:14:48;1.70;;;1.60;;
12976;SDS011;6553;48.412;9.514;2023-07-28T04:17:14;1.63;;;1.52;;
12976;SDS011;6553;48.412;9.514;2023-07-28T04:19:40;1.90;;;1.80;;
12976;SDS011;6553;48.412;9.514;2023-07-28T04:22:06;1.92;;;1.77;;
12976;SDS011;6553;48.412;9.514;2023-07-28T04:24:33;1.80;;;1.70;;
12976;SDS011;6553;48.412;9.514;2023-07-28T04:26:59;1.60;;;1.50;;
12976;SDS011;6553;48.412;9.514;2023-07-28T04:29:25;1.75;;;1.65;;
12976;SDS011;6553;48.412;9.514;2023-07-28T04:31:52;1.60;;;1.50;;
12976;SDS011;6553;48.412;9.514;2023-07-28T04:34:26;1.65;;;1.55;;
12976;SDS011;6553;48.412;9.514;2023-07-28T04:37:15;1.67;;;1.58;;
12976;SDS011;6553;48.412;9.514;2023-07-28T04:39:48;1.60;;;1.50;;
12976;SDS011;6553;48.412;9.514;2023-07-28T04:42:16;1.80;;;1.70;;
12976;SDS011;6553;48.412;9.514;2023-07-28T04:44:45;1.70;;;1.60;;
12976;SDS011;6553;48.412;9.514;2023-07-28T04:47:11;1.77;;;1.67;;
12976;SDS011;6553;48.412;9.514;2023-07-28T04:49:37;1.90;;;1.70;;
12976;SDS011;6553;48.412;9.514;2023-07-28T04:52:23;1.60;;;1.50;;
12976;SDS011;6553;48.412;9.514;2023-07-28T04:55:09;1.63;;;1.52;;
12976;SDS011;6553;48.412;9.514;2023-07-28T04:57:35;2.08;;;1.80;;
12976;SDS011;6553;48.412;9.514;2023-07-28T05:00:01;1.67;;;1.58;;
12976;SDS011;6553;48.412;9.514;2023-07-28T05:02:27;1.90;;;1.60;;
12976;SDS011;6553;48.412;9.514;2023-07-28T05:04:53;1.50;;;1.40;;
12976;SDS011;6553;48.412;9.514;2023-07-28T05:07:19;1.98;;;1.77;;
12976;SDS011;6553;48.412;9.514;2023-07-28T05:09:45;1.58;;;1.48;;
12976;SDS011;6553;48.412;9.514;2023-07-28T05:12:11;1.80;;;1.70;;
12976;SDS011;6553;48.412;9.514;2023-07-28T05:14:42;1.50;;;1.40;;
12976;SDS011;6553;48.412;9.514;2023-07-28T05:17:08;1.67;;;1.58;;
12976;SDS011;6553;48.412;9.514;2023-07-28T05:20:04;1.60;;;1.50;;
12976;SDS011;6553;48.412;9.514;2023-07-28T05:22:46;1.70;;;1.60;;
12976;SDS011;6553;48.412;9.514;2023-07-28T05:25:12;2.20;;;1.75;;
12976;SDS011;6553;48.412;9.514;2023-07-28T05:27:41;1.98;;;1.50;;
12976;SDS011;6553;48.412;9.514;2023-07-28T05:30:07;1.50;;;1.40;;
12976;SDS011;6553;48.412;9.514;2023-07-28T05:32:33;1.52;;;1.42;;
12976;SDS011;6553;48.412;9.514;2023-07-28T05:35:09;1.67;;;1.58;;
12976;SDS011;6553;48.412;9.514;2023-07-28T05:37:35;1.52;;;1.42;;
12976;SDS011;6553;48.412;9.514;2023-07-28T05:40:01;1.70;;;1.60;;
12976;SDS011;6553;48.412;9.514;2023-07-28T05:42:26;1.60;;;1.50;;
12976;SDS011;6553;48.412;9.514;2023-07-28T05:44:53;1.83;;;1.73;;
12976;SDS011;6553;48.412;9.514;2023-07-28T05:47:20;1.55;;;1.45;;
12976;SDS011;6553;48.412;9.514;2023-07-28T05:49:46;1.98;;;1.30;;
12976;SDS011;6553;48.412;9.514;2023-07-28T05:52:12;1.52;;;1.42;;
12976;SDS011;6553;48.412;9.514;2023-07-28T05:54:38;2.75;;;1.48;;
12976;SDS011;6553;48.412;9.514;2023-07-28T05:57:04;1.65;;;1.55;;
12976;SDS011;6553;48.412;9.514;2023-07-28T05:59:30;1.70;;;1.60;;
12976;SDS011;6553;48.412;9.514;2023-07-28T06:01:56;1.92;;;1.83;;
12976;SDS011;6553;48.412;9.514;2023-07-28T06:04:47;1.75;;;1.50;;
12976;SDS011;6553;48.412;9.514;2023-07-28T06:07:13;1.65;;;1.55;;
12976;SDS011;6553;48.412;9.514;2023-07-28T06:09:40;1.75;;;1.60;;
12976;SDS011;6553;48.412;9.514;2023-07-28T06:12:06;1.80;;;1.70;;
12976;SDS011;6553;48.412;9.514;2023-07-28T06:14:32;1.40;;;1.30;;
12976;SDS011;6553;48.412;9.514;2023-07-28T06:16:59;1.58;;;1.48;;
12976;SDS011;6553;48.412;9.514;2023-07-28T06:19:28;1.60;;;1.50;;
12976;SDS011;6553;48.412;9.514;2023-07-28T06:21:54;1.52;;;1.40;;
12976;SDS011;6553;48.412;9.514;2023-07-28T06:24:20;2.67;;;1.85;;
12976;SDS011;6553;48.412;9.514;2023-07-28T06:26:46;1.60;;;1.50;;
12976;SDS011;6553;48.412;9.514;2023-07-28T06:29:12;1.92;;;1.20;;
12976;SDS011;6553;48.412;9.514;2023-07-28T06:31:38;1.88;;;1.77;;
12976;SDS011;6553;48.412;9.514;2023-07-28T06:34:03;1.63;;;1.52;;
12976;SDS011;6553;48.412;9.514;2023-07-28T06:36:29;1.63;;;1.50;;
12976;SDS011;6553;48.412;9.514;2023-07-28T06:38:55;1.70;;;1.60;;
12976;SDS011;6553;48.412;9.514;2023-07-28T06:41:21;1.50;;;1.40;;
12976;SDS011;6553;48.412;9.514;2023-07-28T06:43:54;1.40;;;1.30;;
12976;SDS011;6553;48.412;9.514;2023-07-28T06:46:19;1.67;;;1.58;;
12976;SDS011;6553;48.412;9.514;2023-07-28T06:48:45;1.60;;;1.50;;
12976;SDS011;6553;48.412;9.514;2023-07-28T06:51:14;1.83;;;1.70;;
12976;SDS011;6553;48.412;9.514;2023-07-28T06:53:41;1.60;;;1.50;;
12976;SDS011;6553;48.412;9.514;2023-07-28T06:56:06;1.63;;;1.52;;
12976;SDS011;6553;48.412;9.514;2023-07-28T06:58:32;3.08;;;1.50;;
12976;SDS011;6553;48.412;9.514;2023-07-28T07:00:58;2.25;;;1.67;;
12976;SDS011;6553;48.412;9.514;2023-07-28T07:03:24;1.42;;;1.33;;
12976;SDS011;6553;48.412;9.514;2023-07-28T07:05:49;1.70;;;1.55;;
12976;SDS011;6553;48.412;9.514;2023-07-28T07:08:15;1.98;;;1.88;;
12976;SDS011;6553;48.412;9.514;2023-07-28T07:10:47;1.70;;;1.60;;
12976;SDS011;6553;48.412;9.514;2023-07-28T07:13:16;1.83;;;1.73;;
12976;SDS011;6553;48.412;9.514;2023-07-28T07:15:42;1.70;;;1.60;;
12976;SDS011;6553;48.412;9.514;2023-07-28T07:18:08;1.67;;;1.58;;
12976;SDS011;6553;48.412;9.514;2023-07-28T07:20:34;1.67;;;1.58;;
12976;SDS011;6553;48.412;9.514;2023-07-28T07:23:01;1.80;;;1.70;;
12976;SDS011;6553;48.412;9.514;2023-07-28T07:25:27;1.63;;;1.52;;
12976;SDS011;6553;48.412;9.514;2023-07-28T07:27:52;1.92;;;1.52;;
12976;SDS011;6553;48.412;9.514;2023-07-28T07:30:18;3.08;;;1.67;;
12976;SDS011;6553;48.412;9.514;2023-07-28T07:32:44;1.77;;;1.60;;
12976;SDS011;6553;48.412;9.514;2023-07-28T07:35:10;1.80;;;1.70;;
12976;SDS011;6553;48.412;9.514;2023-07-28T07:37:36;1.92;;;1.83;;
12976;SDS011;6553;48.412;9.514;2023-07-28T07:40:03;2.28;;;1.55;;
12976;SDS011;6553;48.412;9.514;2023-07-28T07:42:45;2.45;;;1.73;;
12976;SDS011;6553;48.412;9.514;2023-07-28T07:45:13;1.65;;;1.55;;
12976;SDS011;6553;48.412;9.514;2023-07-28T07:47:40;1.90;;;1.80;;
12976;SDS011;6553;48.412;9.514;2023-07-28T07:50:07;1.70;;;1.60;;
12976;SDS011;6553;48.412;9.514;2023-07-28T07:52:34;1.60;;;1.48;;
12976;SDS011;6553;48.412;9.514;2023-07-28T07:55:01;1.92;;;1.75;;
12976;SDS011;6553;48.412;9.514;2023-07-28T07:57:28;1.85;;;1.75;;
12976;SDS011;6553;48.412;9.514;2023-07-28T07:59:54;2.17;;;1.98;;
12976;SDS011;6553;48.412;9.514;2023-07-28T08:02:23;2.05;;;1.85;;
12976;SDS011;6553;48.412;9.514;2023-07-28T08:04:49;1.63;;;1.52;;
12976;SDS011;6553;48.412;9.514;2023-07-28T08:07:15;1.83;;;1.65;;
12976;SDS011;6553;48.412;9.514;2023-07-28T08:09:44;2.03;;;1.75;;
12976;SDS011;6553;48.412;9.514;2023-07-28T08:12:11;1.80;;;1.70;;
12976;SDS011;6553;48.412;9.514;2023-07-28T08:14:37;1.85;;;1.65;;
12976;SDS011;6553;48.412;9.514;2023-07-28T08:17:03;2.67;;;1.60;;
12976;SDS011;6553;48.412;9.514;2023-07-28T08:19:29;1.58;;;1.48;;
12976;SDS011;6553;48.412;9.514;2023-07-28T08:21:55;1.70;;;1.60;;
12976;SDS011;6553;48.412;9.514;2023-07-28T08:24:20;1.80;;;1.70;;
12976;SDS011;6553;48.412;9.514;2023-07-28T08:26:46;1.88;;;1.65;;
12976;SDS011;6553;48.412;9.514;2023-07-28T08:29:12;1.67;;;1.58;;
12976;SDS011;6553;48.412;9.514;2023-07-28T08:31:37;2.72;;;1.90;;
12976;SDS011;6553;48.412;9.514;2023-07-28T08:34:03;2.08;;;1.88;;
12976;SDS011;6553;48.412;9.514;2023-07-28T08:36:29;1.88;;;1.67;;
12976;SDS011;6553;48.412;9.514;2023-07-28T08:38:54;1.67;;;1.58;;
12976;SDS011;6553;48.412;9.514;2023-07-28T08:41:20;2.10;;;1.63;;
12976;SDS011;6553;48.412;9.514;2023-07-28T08:43:46;1.65;;;1.55;;
12976;SDS011;6553;48.412;9.514;2023-07-28T08:46:12;1.75;;;1.65;;
12976;SDS011;6553;48.412;9.514;2023-07-28T08:48:38;2.50;;;1.70;;
12976;SDS011;6553;48.412;9.514;2023-07-28T08:51:04;2.30;;;2.10;;
12976;SDS011;6553;48.412;9.514;2023-07-28T08:53:30;1.80;;;1.70;;
12976;SDS011;6553;48.412;9.514;2023-07-28T08:55:56;2.03;;;1.80;;
12976;SDS011;6553;48.412;9.514;2023-07-28T08:58:22;5.70;;;1.90;;
12976;SDS011;6553;48.412;9.514;2023-07-28T09:00:51;1.90;;;1.70;;
12976;SDS011;6553;48.412;9.514;2023-07-28T09:03:18;1.80;;;1.70;;
12976;SDS011;6553;48.412;9.514;2023-07-28T09:05:44;1.92;;;1.77;;
12976;SDS011;6553;48.412;9.514;2023-07-28T09:08:17;1.98;;;1.80;;
12976;SDS011;6553;48.412;9.514;2023-07-28T09:10:47;1.77;;;1.67;;
12976;SDS011;6553;48.412;9.514;2023-07-28T09:13:15;1.80;;;1.70;;
12976;SDS011;6553;48.412;9.514;2023-07-28T09:15:43;2.63;;;2.22;;
12976;SDS011;6553;48.412;9.514;2023-07-28T09:18:10;3.25;;;1.90;;
12976;SDS011;6553;48.412;9.514;2023-07-28T09:20:39;2.78;;;1.75;;
12976;SDS011;6553;48.412;9.514;2023-07-28T09:23:06;3.13;;;2.08;;
12976;SDS011;6553;48.412;9.514;2023-07-28T09:25:34;2.28;;;2.08;;
12976;SDS011;6553;48.412;9.514;2023-07-28T09:28:02;1.70;;;1.60;;
12976;SDS011;6553;48.412;9.514;2023-07-28T09:30:44;2.20;;;2.00;;
12976;SDS011;6553;48.412;9.514;2023-07-28T09:33:14;2.20;;;2.00;;
12976;SDS011;6553;48.412;9.514;2023-07-28T09:35:55;2.30;;;2.10;;
12976;SDS011;6553;48.412;9.514;2023-07-28T09:38:22;1.98;;;1.88;;
12976;SDS011;6553;48.412;9.514;2023-07-28T09:40:52;1.83;;;1.73;;
12976;SDS011;6553;48.412;9.514;2023-07-28T09:43:19;1.85;;;1.75;;
12976;SDS011;6553;48.412;9.514;2023-07-28T09:45:44;2.28;;;2.05;;
12976;SDS011;6553;48.412;9.514;2023-07-28T09:48:11;2.40;;;2.10;;
12976;SDS011;6553;48.412;9.514;2023-07-28T09:50:40;1.90;;;1.75;;
12976;SDS011;6553;48.412;9.514;2023-07-28T09:53:09;3.03;;;2.20;;
12976;SDS011;6553;48.412;9.514;2023-07-28T09:55:38;2.30;;;2.10;;
12976;SDS011;6553;48.412;9.514;2023-07-28T09:58:08;2.47;;;2.28;;
12976;SDS011;6553;48.412;9.514;2023-07-28T10:00:37;2.47;;;2.10;;
12976;SDS011;6553;48.412;9.514;2023-07-28T10:03:03;2.65;;;2.08;;
12976;SDS011;6553;48.412;9.514;2023-07-28T10:05:30;2.28;;;2.08;;
12976;SDS011;6553;48.412;9.514;2023-07-28T10:07:59;2.20;;;1.90;;
12976;SDS011;6553;48.412;9.514;2023-07-28T10:10:26;2.08;;;1.90;;
12976;SDS011;6553;48.412;9.514;2023-07-28T10:12:53;2.72;;;2.08;;
12976;SDS011;6553;48.412;9.514;2023-07-28T10:15:27;1.83;;;1.73;;
12976;SDS011;6553;48.412;9.514;2023-07-28T10:17:56;2.13;;;1.92;;
12976;SDS011;6553;48.412;9.514;2023-07-28T10:23:16;2.75;;;2.55;;
12976;SDS011;6553;48.412;9.514;2023-07-28T10:25:47;1.90;;;1.80;;
12976;SDS011;6553;48.412;9.514;2023-07-28T10:28:38;2.47;;;2.28;;
12976;SDS011;6553;48.412;9.514;2023-07-28T10:31:09;2.28;;;2.00;;
12976;SDS011;6553;48.412;9.514;2023-07-28T10:33:37;2.13;;;2.03;;
12976;SDS011;6553;48.412;9.514;2023-07-28T10:36:11;2.25;;;2.05;;
12976;SDS011;6553;48.412;9.514;2023-07-28T10:38:46;2.45;;;2.25;;
12976;SDS011;6553;48.412;9.514;2023-07-28T10:41:34;3.33;;;1.85;;
12976;SDS011;6553;48.412;9.514;2023-07-28T10:44:00;2.20;;;2.00;;
12976;SDS011;6553;48.412;9.514;2023-07-28T10:46:27;2.50;;;2.30;;
12976;SDS011;6553;48.412;9.514;2023-07-28T10:48:53;2.35;;;2.20;;
12976;SDS011;6553;48.412;9.514;2023-07-28T10:51:23;2.03;;;1.92;;
12976;SDS011;6553;48.412;9.514;2023-07-28T10:53:58;2.60;;;2.15;;
12976;SDS011;6553;48.412;9.514;2023-07-28T10:56:27;2.05;;;1.92;;
12976;SDS011;6553;48.412;9.514;2023-07-28T11:01:31;2.03;;;1.92;;
12976;SDS011;6553;48.412;9.514;2023-07-28T11:04:09;2.10;;;2.00;;
12976;SDS011;6553;48.412;9.514;2023-07-28T11:06:48;2.25;;;2.05;;
12976;SDS011;6553;48.412;9.514;2023-07-28T11:09:16;2.15;;;2.00;;
12976;SDS011;6553;48.412;9.514;2023-07-28T11:11:45;2.50;;;2.28;;
12976;SDS011;6553;48.412;9.514;2023-07-28T11:14:11;2.65;;;1.95;;
12976;SDS011;6553;48.412;9.514;2023-07-28T11:16:40;1.95;;;1.85;;
12976;SDS011;6553;48.412;9.514;2023-07-28T11:19:12;2.20;;;2.00;;
12976;SDS011;6553;48.412;9.514;2023-07-28T11:21:44;2.15;;;1.98;;
12976;SDS011;6553;48.412;9.514;2023-07-28T11:24:17;2.15;;;1.80;;
12976;SDS011;6553;48.412;9.514;2023-07-28T11:26:44;1.95;;;1.75;;
12976;SDS011;6553;48.412;9.514;2023-07-28T11:29:11;2.13;;;1.92;;
12976;SDS011;6553;48.412;9.514;2023-07-28T11:31:37;2.15;;;1.95;;
12976;SDS011;6553;48.412;9.514;2023-07-28T11:34:12;2.58;;;1.92;;
12976;SDS011;6553;48.412;9.514;2023-07-28T11:36:42;2.17;;;1.98;;
12976;SDS011;6553;48.412;9.514;2023-07-28T11:39:07;2.30;;;2.10;;
12976;SDS011;6553;48.412;9.514;2023-07-28T11:41:35;2.63;;;2.42;;
12976;SDS011;6553;48.412;9.514;2023-07-28T11:44:03;2.47;;;2.25;;
12976;SDS011;6553;48.412;9.514;2023-07-28T11:46:34;2.22;;;2.10;;
12976;SDS011;6553;48.412;9.514;2023-07-28T11:51:39;2.28;;;2.10;;
12976;SDS011;6553;48.412;9.514;2023-07-28T11:54:08;2.35;;;2.15;;
12976;SDS011;6553;48.412;9.514;2023-07-28T11:56:40;2.30;;;2.10;;
12976;SDS011;6553;48.412;9.514;2023-07-28T11:59:11;2.30;;;2.10;;
12976;SDS011;6553;48.412;9.514;2023-07-28T12:01:53;1.92;;;1.83;;
12976;SDS011;6553;48.412;9.514;2023-07-28T12:04:36;2.13;;;2.03;;
12976;SDS011;6553;48.412;9.514;2023-07-28T12:07:13;2.30;;;2.10;;
12976;SDS011;6553;48.412;9.514;2023-07-28T12:12:15;2.17;;;1.98;;
12976;SDS011;6553;48.412;9.514;2023-07-28T12:14:43;2.58;;;2.38;;
12976;SDS011;6553;48.412;9.514;2023-07-28T12:17:15;2.97;;;2.10;;
12976;SDS011;6553;48.412;9.514;2023-07-28T12:22:26;2.13;;;2.00;;
12976;SDS011;6553;48.412;9.514;2023-07-28T12:24:53;2.47;;;2.28;;
12976;SDS011;6553;48.412;9.514;2023-07-28T12:27:19;2.05;;;1.85;;
12976;SDS011;6553;48.412;9.514;2023-07-28T12:29:48;2.08;;;1.98;;
12976;SDS011;6553;48.412;9.514;2023-07-28T12:32:16;2.00;;;1.90;;
12976;SDS011;6553;48.412;9.514;2023-07-28T12:34:42;2.17;;;1.98;;
12976;SDS011;6553;48.412;9.514;2023-07-28T12:37:07;2.47;;;2.28;;
12976;SDS011;6553;48.412;9.514;2023-07-28T12:39:36;4.15;;;2.15;;
12976;SDS011;6553;48.412;9.514;2023-07-28T12:42:05;2.13;;;2.00;;
12976;SDS011;6553;48.412;9.514;2023-07-28T12:44:32;2.75;;;2.08;;
12976;SDS011;6553;48.412;9.514;2023-07-28T12:46:58;2.92;;;2.10;;
12976;SDS011;6553;48.412;9.514;2023-07-28T12:49:24;2.20;;;2.00;;
12976;SDS011;6553;48.412;9.514;2023-07-28T12:51:50;3.42;;;2.35;;
12976;SDS011;6553;48.412;9.514;2023-07-28T12:54:15;2.47;;;2.10;;
12976;SDS011;6553;48.412;9.514;2023-07-28T12:56:41;2.85;;;2.03;;
12976;SDS011;6553;48.412;9.514;2023-07-28T12:59:07;1.67;;;1.55;;
12976;SDS011;6553;48.412;9.514;2023-07-28T13:01:35;2.88;;;2.28;;
12976;SDS011;6553;48.412;9.514;2023-07-28T13:04:02;2.10;;;1.92;;
12976;SDS011;6553;48.412;9.514;2023-07-28T13:06:28;2.38;;;1.92;;
12976;SDS011;6553;48.412;9.514;2023-07-28T13:08:54;3.05;;;2.17;;
12976;SDS011;6553;48.412;9.514;2023-07-28T13:11:19;2.00;;;1.90;;
12976;SDS011;6553;48.412;9.514;2023-07-28T13:13:45;2.30;;;1.95;;
12976;SDS011;6553;48.412;9.514;2023-07-28T13:16:11;2.33;;;1.88;;
12976;SDS011;6553;48.412;9.514;2023-07-28T13:18:36;2.50;;;2.30;;
12976;SDS011;6553;48.412;9.514;2023-07-28T13:21:04;2.88;;;2.20;;
12976;SDS011;6553;48.412;9.514;2023-07-28T13:23:31;2.53;;;1.95;;
12976;SDS011;6553;48.412;9.514;2023-07-28T13:25:57;2.13;;;2.00;;
12976;SDS011;6553;48.412;9.514;2023-07-28T13:28:23;3.22;;;2.30;;
12976;SDS011;6553;48.412;9.514;2023-07-28T13:30:50;2.42;;;2.22;;
12976;SDS011;6553;48.412;9.514;2023-07-28T13:33:16;2.75;;;2.08;;
12976;SDS011;6553;48.412;9.514;2023-07-28T13:35:42;1.90;;;1.70;;
12976;SDS011;6553;48.412;9.514;2023-07-28T13:38:08;2.30;;;2.10;;
12976;SDS011;6553;48.412;9.514;2023-07-28T13:40:34;1.92;;;1.83;;
12976;SDS011;6553;48.412;9.514;2023-07-28T13:43:00;3.08;;;1.70;;
12976;SDS011;6553;48.412;9.514;2023-07-28T13:45:26;2.35;;;2.15;;
12976;SDS011;6553;48.412;9.514;2023-07-28T13:47:52;2.28;;;2.08;;
12976;SDS011;6553;48.412;9.514;2023-07-28T13:50:18;2.38;;;2.17;;
12976;SDS011;6553;48.412;9.514;2023-07-28T13:52:43;1.92;;;1.83;;
12976;SDS011;6553;48.412;9.514;2023-07-28T13:55:09;3.22;;;2.30;;
12976;SDS011;6553;48.412;9.514;2023-07-28T13:57:35;2.13;;;2.00;;
12976;SDS011;6553;48.412;9.514;2023-07-28T14:00:01;2.22;;;1.95;;
12976;SDS011;6553;48.412;9.514;2023-07-28T14:02:30;2.08;;;1.75;;
12976;SDS011;6553;48.412;9.514;2023-07-28T14:04:55;2.22;;;2.00;;
12976;SDS011;6553;48.412;9.514;2023-07-28T14:07:21;2.15;;;1.85;;
12976;SDS011;6553;48.412;9.514;2023-07-28T14:09:47;1.88;;;1.77;;
12976;SDS011;6553;48.412;9.514;2023-07-28T14:12:13;2.17;;;2.08;;
12976;SDS011;6553;48.412;9.514;2023-07-28T14:14:38;2.22;;;2.03;;
12976;SDS011;6553;48.412;9.514;2023-07-28T14:17:04;3.78;;;1.92;;
12976;SDS011;6553;48.412;9.514;2023-07-28T14:19:30;2.22;;;2.03;;
12976;SDS011;6553;48.412;9.514;2023-07-28T14:21:55;2.17;;;1.92;;
12976;SDS011;6553;48.412;9.514;2023-07-28T14:24:21;2.50;;;2.30;;
12976;SDS011;6553;48.412;9.514;2023-07-28T14:26:47;2.17;;;1.70;;
12976;SDS011;6553;48.412;9.514;2023-07-28T14:29:12;2.40;;;2.20;;
12976;SDS011;6553;48.412;9.514;2023-07-28T14:31:38;3.28;;;1.98;;
12976;SDS011;6553;48.412;9.514;2023-07-28T14:34:04;2.13;;;1.92;;
12976;SDS011;6553;48.412;9.514;2023-07-28T14:36:29;2.22;;;2.03;;
12976;SDS011;6553;48.412;9.514;2023-07-28T14:38:55;2.22;;;2.00;;
12976;SDS011;6553;48.412;9.514;2023-07-28T14:41:21;2.17;;;1.98;;
12976;SDS011;6553;48.412;9.514;2023-07-28T14:43:47;2.53;;;1.90;;
12976;SDS011;6553;48.412;9.514;2023-07-28T14:46:13;2.97;;;2.15;;
12976;SDS011;6553;48.412;9.514;2023-07-28T14:48:39;1.92;;;1.83;;
12976;SDS011;6553;48.412;9.514;2023-07-28T14:51:05;2.58;;;2.08;;
12976;SDS011;6553;48.412;9.514;2023-07-28T14:53:32;2.03;;;1.90;;
12976;SDS011;6553;48.412;9.514;2023-07-28T14:56:01;2.70;;;2.25;;
12976;SDS011;6553;48.412;9.514;2023-07-28T14:58:29;2.15;;;1.95;;
12976;SDS011;6553;48.412;9.514;2023-07-28T15:00:55;2.60;;;2.40;;
12976;SDS011;6553;48.412;9.514;2023-07-28T15:03:22;2.53;;;2.30;;
12976;SDS011;6553;48.412;9.514;2023-07-28T15:05:53;3.15;;;2.28;;
12976;SDS011;6553;48.412;9.514;2023-07-28T15:08:22;2.58;;;2.38;;
12976;SDS011;6553;48.412;9.514;2023-07-28T15:10:48;2.38;;;2.17;;
12976;SDS011;6553;48.412;9.514;2023-07-28T15:13:13;3.15;;;2.50;;
12976;SDS011;6553;48.412;9.514;2023-07-28T15:15:39;2.35;;;2.15;;
12976;SDS011;6553;48.412;9.514;2023-07-28T15:18:05;3.35;;;2.50;;
12976;SDS011;6553;48.412;9.514;2023-07-28T15:20:32;2.65;;;2.45;;
12976;SDS011;6553;48.412;9.514;2023-07-28T15:22:58;3.70;;;2.30;;